Time;durP1;ratioP1;P1;durP2;ratioP2;P2;SDS_P1;SDS_P2;PMS_P1;PMS_P2;Temp;Humidity;BMP_temperature;BMP_pressure;BME280_temperature;BME280_humidity;BME280_pressure;Samples;Min_cycle;Max_cycle;Signal;HPM_P1;HPM_P2
2023/10/07 00:03:09;;;;;;;7.10;3.30;;;;;;;;;;10487867;28;20037;-83
2023/10/07 00:08:12;;;;;;;4.93;3.13;;;;;;;;;;10486571;28;20024;-81
2023/10/07 00:13:13;;;;;;;9.32;3.25;;;;;;;;;;10486569;28;20482;-84
2023/10/07 00:18:16;;;;;;;5.63;3.15;;;;;;;;;;10469280;28;20095;-88
2023/10/07 00:23:23;;;;;;;7.57;3.25;;;;;;;;;;10486408;28;20040;-81
2023/10/07 00:28:31;;;;;;;8.98;3.03;;;;;;;;;;10484582;28;20067;-83
2023/10/07 00:34:16;;;;;;;6.72;3.05;;;;;;;;;;10486102;28;20031;-83
2023/10/07 00:38:59;;;;;;;6.75;3.03;;;;;;;;;;10476692;28;20123;-82
2023/10/07 00:44:16;;;;;;;6.63;2.90;;;;;;;;;;10485652;28;20028;-81
2023/10/07 00:49:27;;;;;;;6.35;3.38;;;;;;;;;;10485604;28;20480;-81
2023/10/07 00:54:44;;;;;;;7.93;3.25;;;;;;;;;;10485412;28;20033;-83
2023/10/07 00:59:50;;;;;;;7.03;3.72;;;;;;;;;;10484489;28;20043;-80
2023/10/07 01:04:51;;;;;;;12.00;3.92;;;;;;;;;;10485784;28;20027;-84
2023/10/07 01:10:12;;;;;;;6.60;3.60;;;;;;;;;;10482237;28;20051;-81
2023/10/07 01:25:44;;;;;;;9.93;3.42;;;;;;;;;;10485242;28;20476;-84
2023/10/07 01:31:07;;;;;;;7.35;3.22;;;;;;;;;;10484111;28;20028;-84
2023/10/07 01:36:11;;;;;;;6.70;2.78;;;;;;;;;;10484300;28;20032;-85
2023/10/07 01:41:19;;;;;;;7.80;3.70;;;;;;;;;;10484202;28;20467;-80
2023/10/07 01:46:20;;;;;;;7.68;3.33;;;;;;;;;;10472831;28;20395;-84
2023/10/07 01:51:26;;;;;;;10.85;3.63;;;;;;;;;;10484790;28;20032;-81
2023/10/07 01:56:29;;;;;;;6.47;3.03;;;;;;;;;;10465178;28;20038;-81
2023/10/07 02:01:30;;;;;;;9.02;3.25;;;;;;;;;;10484506;28;20028;-84
2023/10/07 02:06:31;;;;;;;14.73;3.42;;;;;;;;;;10484530;28;20032;-81
2023/10/07 02:11:32;;;;;;;8.43;3.45;;;;;;;;;;10483725;28;20075;-84
2023/10/07 02:16:34;;;;;;;6.88;3.70;;;;;;;;;;10482509;28;20043;-83
2023/10/07 02:21:35;;;;;;;6.65;4.25;;;;;;;;;;10484159;28;20044;-84
2023/10/07 02:26:36;;;;;;;10.05;3.88;;;;;;;;;;10483640;28;20025;-81
2023/10/07 02:31:43;;;;;;;7.80;4.15;;;;;;;;;;10486834;28;20039;-82
2023/10/07 02:36:51;;;;;;;13.55;3.70;;;;;;;;;;10491370;28;20432;-82
2023/10/07 02:41:53;;;;;;;7.72;3.83;;;;;;;;;;10490220;28;20040;-83
2023/10/07 02:46:56;;;;;;;11.30;4.00;;;;;;;;;;10490331;28;20025;-81
2023/10/07 02:51:57;;;;;;;7.57;3.55;;;;;;;;;;10472329;28;20033;-85
2023/10/07 03:07:18;;;;;;;7.35;3.55;;;;;;;;;;10488580;28;20126;-84
2023/10/07 03:12:27;;;;;;;10.43;4.35;;;;;;;;;;10488075;28;20052;-81
2023/10/07 03:17:39;;;;;;;12.32;4.70;;;;;;;;;;10489639;28;20740;-82
2023/10/07 03:23:11;;;;;;;7.50;3.83;;;;;;;;;;10488752;28;20123;-81
2023/10/07 03:28:16;;;;;;;11.52;4.43;;;;;;;;;;10487897;28;20040;-83
2023/10/07 03:33:32;;;;;;;11.77;4.43;;;;;;;;;;10487623;28;20028;-84
2023/10/07 03:38:35;;;;;;;8.32;3.92;;;;;;;;;;10488125;28;20035;-81
2023/10/07 03:43:37;;;;;;;8.57;3.40;;;;;;;;;;10485848;28;20036;-81
2023/10/07 03:48:40;;;;;;;6.45;3.45;;;;;;;;;;10482147;28;20037;-83
2023/10/07 03:53:44;;;;;;;9.65;3.85;;;;;;;;;;10487092;28;20067;-82
2023/10/07 03:58:45;;;;;;;7.75;3.70;;;;;;;;;;10487877;28;20031;-81
2023/10/07 04:03:47;;;;;;;9.93;4.28;;;;;;;;;;10487519;28;20074;-81
2023/10/07 04:08:56;;;;;;;9.57;3.42;;;;;;;;;;10485807;28;20067;-81
2023/10/07 04:13:59;;;;;;;6.95;4.00;;;;;;;;;;10473043;28;20033;-83
2023/10/07 04:19:09;;;;;;;18.65;4.63;;;;;;;;;;10487005;28;20024;-82
2023/10/07 04:24:13;;;;;;;11.95;4.95;;;;;;;;;;10484724;28;20147;-85
2023/10/07 04:29:17;;;;;;;10.88;4.65;;;;;;;;;;10485473;28;20034;-81
2023/10/07 04:34:19;;;;;;;12.48;4.85;;;;;;;;;;10485536;28;20020;-81
2023/10/07 04:39:26;;;;;;;10.50;4.72;;;;;;;;;;10474317;28;20032;-80
2023/10/07 04:45:17;;;;;;;12.77;5.13;;;;;;;;;;10463793;28;20028;-81
2023/10/07 04:55:05;;;;;;;9.57;4.25;;;;;;;;;;10484014;28;20025;-80
2023/10/07 05:00:17;;;;;;;9.10;4.57;;;;;;;;;;10484999;28;20032;-84
2023/10/07 05:05:18;;;;;;;15.15;5.82;;;;;;;;;;10483531;28;20176;-83
2023/10/07 05:10:20;;;;;;;14.23;5.47;;;;;;;;;;10482956;28;20537;-83
2023/10/07 05:15:24;;;;;;;13.75;6.10;;;;;;;;;;10485102;28;20045;-82
2023/10/07 05:20:28;;;;;;;13.43;5.25;;;;;;;;;;10484333;28;20032;-81
2023/10/07 05:25:35;;;;;;;8.85;4.50;;;;;;;;;;10482029;28;20511;-79
2023/10/07 05:30:37;;;;;;;12.18;4.90;;;;;;;;;;10477796;28;20031;-81
2023/10/07 05:35:38;;;;;;;11.27;4.55;;;;;;;;;;10479897;28;20666;-85
2023/10/07 05:40:40;;;;;;;10.52;5.03;;;;;;;;;;10483816;28;20102;-84
2023/10/07 05:45:41;;;;;;;11.70;5.38;;;;;;;;;;10484223;28;20387;-83
2023/10/07 05:50:57;;;;;;;10.30;5.18;;;;;;;;;;10483268;28;20492;-82
2023/10/07 05:55:59;;;;;;;11.43;5.05;;;;;;;;;;10483631;28;20089;-83
2023/10/07 06:01:00;;;;;;;14.88;5.13;;;;;;;;;;10483960;28;20472;-82
2023/10/07 06:06:04;;;;;;;11.65;4.32;;;;;;;;;;10486352;28;20056;-81
2023/10/07 06:11:11;;;;;;;10.77;5.05;;;;;;;;;;10490751;28;20061;-82
2023/10/07 06:16:13;;;;;;;10.98;4.97;;;;;;;;;;10491240;28;20033;-80
2023/10/07 06:21:19;;;;;;;9.88;4.60;;;;;;;;;;10481178;28;20218;-81
2023/10/07 06:26:20;;;;;;;;;;;;;;;;;;10489303;28;20031;-80
2023/10/07 06:31:34;;;;;;;11.68;4.68;;;;;;;;;;10490311;28;19905;-82
2023/10/07 06:36:37;;;;;;;10.55;4.95;;;;;;;;;;10489980;28;20055;-81
2023/10/07 06:41:42;;;;;;;11.10;4.93;;;;;;;;;;10488835;28;20090;-81
2023/10/07 06:46:46;;;;;;;10.23;4.63;;;;;;;;;;10472135;28;20502;-83
2023/10/07 06:51:53;;;;;;;11.00;4.70;;;;;;;;;;10475337;28;20393;-81
2023/10/07 06:56:55;;;;;;;8.25;4.53;;;;;;;;;;10489178;28;20111;-83
2023/10/07 07:01:56;;;;;;;13.57;4.68;;;;;;;;;;10488508;28;20063;-79
2023/10/07 07:06:58;;;;;;;13.02;5.07;;;;;;;;;;10486919;28;20035;-81
2023/10/07 07:12:03;;;;;;;13.10;4.65;;;;;;;;;;10487256;28;20064;-83
2023/10/07 07:22:43;;;;;;;13.48;5.13;;;;;;;;;;10442806;28;20037;-86
2023/10/07 07:27:51;;;;;;;10.70;5.18;;;;;;;;;;10485753;28;20667;-81
2023/10/07 07:32:56;;;;;;;13.98;5.70;;;;;;;;;;10484000;28;20033;-83
2023/10/07 07:38:02;;;;;;;16.05;5.88;;;;;;;;;;10465710;28;20751;-83
2023/10/07 07:43:07;;;;;;;12.32;5.90;;;;;;;;;;10487312;28;20044;-85
2023/10/07 07:48:10;;;;;;;10.77;5.10;;;;;;;;;;10487171;28;20765;-82
2023/10/07 07:53:12;;;;;;;13.30;5.00;;;;;;;;;;10485582;28;20109;-80
2023/10/07 07:58:13;;;;;;;9.30;5.10;;;;;;;;;;10478281;28;20040;-82
2023/10/07 08:03:27;;;;;;;10.15;4.18;;;;;;;;;;10478327;28;20032;-80
2023/10/07 08:08:29;;;;;;;11.60;4.85;;;;;;;;;;10475467;28;20029;-80
2023/10/07 08:13:30;;;;;;;8.73;4.65;;;;;;;;;;10476507;28;20052;-79
2023/10/07 08:18:31;;;;;;;12.77;5.63;;;;;;;;;;10484145;28;20028;-79
2023/10/07 08:23:36;;;;;;;12.65;6.07;;;;;;;;;;10479372;28;20541;-78
2023/10/07 08:28:59;;;;;;;12.82;5.20;;;;;;;;;;10472845;28;20033;-82
2023/10/07 08:39:10;;;;;;;10.85;5.25;;;;;;;;;;10480527;28;20040;-78
2023/10/07 08:44:18;;;;;;;11.18;4.40;;;;;;;;;;10483311;28;20047;-76
2023/10/07 08:49:26;;;;;;;8.35;3.95;;;;;;;;;;10478433;28;20071;-80
2023/10/07 08:54:31;;;;;;;11.48;4.32;;;;;;;;;;10479925;28;20538;-80
2023/10/07 08:59:32;;;;;;;10.27;4.72;;;;;;;;;;10483883;28;20071;-79
2023/10/07 09:04:36;;;;;;;8.60;4.32;;;;;;;;;;10484744;28;20619;-78
2023/10/07 09:09:38;;;;;;;9.93;4.18;;;;;;;;;;10477293;23;20048;-80
2023/10/07 09:14:52;;;;;;;9.35;4.55;;;;;;;;;;10479075;28;20154;-78
2023/10/07 09:19:58;;;;;;;10.57;4.22;;;;;;;;;;10483904;28;20044;-80
2023/10/07 09:25:17;;;;;;;11.48;5.20;;;;;;;;;;10479869;28;20033;-81
2023/10/07 09:35:42;;;;;;;10.88;4.90;;;;;;;;;;10480029;28;20033;-82
2023/10/07 09:45:58;;;;;;;13.15;5.43;;;;;;;;;;10491858;28;20044;-82
2023/10/07 09:50:59;;;;;;;12.48;5.28;;;;;;;;;;10489136;28;20035;-82
2023/10/07 09:56:11;;;;;;;11.20;4.45;;;;;;;;;;10481180;28;20467;-81
2023/10/07 10:01:28;;;;;;;9.90;4.30;;;;;;;;;;10488330;28;20043;-82
2023/10/07 10:06:39;;;;;;;11.52;4.40;;;;;;;;;;10491777;28;20029;-81
2023/10/07 10:16:57;;;;;;;12.88;6.35;;;;;;;;;;10489692;28;20066;-84
2023/10/07 10:22:10;;;;;;;12.43;5.38;;;;;;;;;;10488017;28;20102;-86
2023/10/07 10:27:12;;;;;;;12.82;5.03;;;;;;;;;;10488265;28;20054;-81
2023/10/07 10:32:16;;;;;;;9.07;4.10;;;;;;;;;;10490702;28;20544;-81
2023/10/07 10:37:20;;;;;;;9.47;4.20;;;;;;;;;;10489636;28;20056;-86
2023/10/07 10:42:21;;;;;;;6.60;3.85;;;;;;;;;;10488779;28;20093;-80
2023/10/07 10:47:22;;;;;;;11.05;4.10;;;;;;;;;;10481771;28;20090;-84
2023/10/07 10:52:30;;;;;;;12.95;5.03;;;;;;;;;;10486867;28;20035;-81
2023/10/07 10:57:31;;;;;;;8.25;4.78;;;;;;;;;;10487707;28;20024;-83
2023/10/07 11:02:39;;;;;;;19.48;9.00;;;;;;;;;;10475764;28;20041;-81
2023/10/07 11:07:41;;;;;;;20.23;9.02;;;;;;;;;;10472381;28;20052;-80
2023/10/07 11:12:45;;;;;;;17.77;7.15;;;;;;;;;;10485870;28;20093;-84
2023/10/07 11:17:56;;;;;;;24.98;11.57;;;;;;;;;;10485484;28;20024;-81
2023/10/07 11:22:57;;;;;;;13.43;6.75;;;;;;;;;;10486712;28;20046;-82
2023/10/07 11:27:58;;;;;;;12.95;6.65;;;;;;;;;;10470646;28;20072;-79
2023/10/07 11:33:09;;;;;;;12.95;6.50;;;;;;;;;;10469015;28;20591;-79
2023/10/07 11:38:11;;;;;;;17.50;8.25;;;;;;;;;;10488911;28;20024;-83
2023/10/07 11:43:12;;;;;;;14.38;7.00;;;;;;;;;;10487528;28;20048;-80
2023/10/07 11:48:21;;;;;;;15.82;7.05;;;;;;;;;;10488104;28;20693;-83
2023/10/07 11:53:22;;;;;;;15.48;7.53;;;;;;;;;;10456141;28;20036;-82
2023/10/07 11:58:24;;;;;;;13.13;5.70;;;;;;;;;;10487445;28;20033;-83
2023/10/07 12:03:25;;;;;;;17.40;7.22;;;;;;;;;;10468992;28;20351;-81
2023/10/07 12:08:26;;;;;;;22.20;9.13;;;;;;;;;;10475897;28;20663;-83
2023/10/07 12:13:28;;;;;;;21.48;7.97;;;;;;;;;;10478685;28;20024;-83
2023/10/07 12:18:30;;;;;;;15.55;6.82;;;;;;;;;;10485478;28;20051;-83
2023/10/07 12:23:33;;;;;;;15.02;6.25;;;;;;;;;;10487009;28;20032;-86
2023/10/07 12:28:53;;;;;;;12.00;5.65;;;;;;;;;;10265711;27;8186949;-84
2023/10/07 12:33:55;;;;;;;12.63;6.07;;;;;;;;;;10521135;28;20090;-86
2023/10/07 12:38:56;;;;;;;11.65;5.68;;;;;;;;;;10520885;28;20032;-81
2023/10/07 12:43:57;;;;;;;9.75;5.15;;;;;;;;;;10519948;28;20051;-81
2023/10/07 12:48:58;;;;;;;12.90;5.78;;;;;;;;;;10520887;28;20799;-80
2023/10/07 12:54:00;;;;;;;12.57;5.35;;;;;;;;;;10519017;28;20609;-82
2023/10/07 12:59:01;;;;;;;8.82;3.95;;;;;;;;;;10518348;28;20545;-84
2023/10/07 13:04:02;;;;;;;11.02;4.63;;;;;;;;;;10518811;28;20131;-81
2023/10/07 13:09:04;;;;;;;13.13;5.72;;;;;;;;;;10517538;28;20025;-84
2023/10/07 13:14:05;;;;;;;9.55;5.22;;;;;;;;;;10519921;28;20016;-80
2023/10/07 13:19:06;;;;;;;10.45;4.88;;;;;;;;;;10518044;28;20028;-80
2023/10/07 13:24:08;;;;;;;11.77;4.90;;;;;;;;;;10521112;28;20056;-80
2023/10/07 13:29:10;;;;;;;11.07;6.43;;;;;;;;;;10560719;28;20043;-80
2023/10/07 13:34:11;;;;;;;8.48;4.68;;;;;;;;;;10560436;28;20020;-81
2023/10/07 13:39:18;;;;;;;9.43;4.75;;;;;;;;;;10537362;28;20028;-80
2023/10/07 13:44:22;;;;;;;14.77;6.13;;;;;;;;;;10532420;28;20510;-80
2023/10/07 13:49:23;;;;;;;13.97;6.27;;;;;;;;;;10531804;28;20039;-84
2023/10/07 13:54:38;;;;;;;9.43;5.10;;;;;;;;;;10513645;28;20382;-79
2023/10/07 13:59:41;;;;;;;11.52;6.22;;;;;;;;;;10532396;28;20046;-81
2023/10/07 14:04:42;;;;;;;13.82;6.53;;;;;;;;;;10531415;28;20031;-84
2023/10/07 14:09:47;;;;;;;12.55;6.30;;;;;;;;;;10532531;28;20030;-82
2023/10/07 14:14:52;;;;;;;13.07;6.97;;;;;;;;;;10531155;28;20030;-80
2023/10/07 14:19:53;;;;;;;9.07;6.22;;;;;;;;;;10517798;28;20034;-79
2023/10/07 14:24:54;;;;;;;13.55;5.53;;;;;;;;;;10529598;28;20056;-81
2023/10/07 14:29:56;;;;;;;10.88;5.72;;;;;;;;;;10530423;28;20115;-81
2023/10/07 14:34:57;;;;;;;10.07;4.88;;;;;;;;;;10530163;28;20035;-82
2023/10/07 14:39:58;;;;;;;8.65;5.32;;;;;;;;;;10529558;28;20475;-83
2023/10/07 14:44:59;;;;;;;11.23;5.40;;;;;;;;;;10529297;28;20028;-85
2023/10/07 14:50:00;;;;;;;8.50;5.20;;;;;;;;;;10528617;28;20494;-80
2023/10/07 14:55:06;;;;;;;11.75;6.80;;;;;;;;;;10529578;28;20084;-79
2023/10/07 15:00:10;;;;;;;12.07;6.35;;;;;;;;;;10530015;28;20028;-79
2023/10/07 15:05:11;;;;;;;14.73;8.13;;;;;;;;;;10528637;28;20034;-79
2023/10/07 15:10:13;;;;;;;21.67;9.75;;;;;;;;;;10529229;28;20067;-85
2023/10/07 15:15:14;;;;;;;16.30;9.20;;;;;;;;;;10497632;28;20028;-80
2023/10/07 15:20:15;;;;;;;19.40;11.23;;;;;;;;;;10527634;28;20016;-80
2023/10/07 15:25:16;;;;;;;17.75;9.48;;;;;;;;;;10526550;28;20059;-79
2023/10/07 15:30:25;;;;;;;17.75;10.13;;;;;;;;;;10529037;28;20024;-80
2023/10/07 15:35:27;;;;;;;16.75;9.70;;;;;;;;;;10528000;28;20035;-80
2023/10/07 15:40:28;;;;;;;18.17;10.18;;;;;;;;;;10527639;28;20770;-80
2023/10/07 15:45:29;;;;;;;16.60;9.25;;;;;;;;;;10527658;28;20044;-83
2023/10/07 15:50:30;;;;;;;13.80;8.75;;;;;;;;;;10509212;28;20040;-79
2023/10/07 15:55:38;;;;;;;14.90;9.15;;;;;;;;;;10526718;28;20024;-80
2023/10/07 16:00:39;;;;;;;14.00;8.05;;;;;;;;;;10527093;28;20032;-79
2023/10/07 16:05:40;;;;;;;15.10;7.63;;;;;;;;;;10526504;28;20032;-79
2023/10/07 16:10:48;;;;;;;14.93;8.52;;;;;;;;;;10526712;28;20020;-82
2023/10/07 16:15:49;;;;;;;15.43;8.20;;;;;;;;;;10527224;28;20115;-84
2023/10/07 16:20:50;;;;;;;21.45;10.95;;;;;;;;;;10526263;28;20028;-80
2023/10/07 16:25:51;;;;;;;19.98;11.18;;;;;;;;;;10525252;28;20163;-80
2023/10/07 16:30:52;;;;;;;19.90;10.02;;;;;;;;;;10526266;28;20364;-79
2023/10/07 16:35:57;;;;;;;18.80;10.15;;;;;;;;;;10526931;28;20031;-80
2023/10/07 16:41:01;;;;;;;32.42;17.27;;;;;;;;;;10526018;28;20032;-79
2023/10/07 16:46:02;;;;;;;26.50;14.45;;;;;;;;;;10526281;28;20040;-81
2023/10/07 16:51:04;;;;;;;22.20;12.00;;;;;;;;;;10526580;28;20427;-80
2023/10/07 16:56:09;;;;;;;18.02;10.68;;;;;;;;;;10512982;28;20035;-85
2023/10/07 17:01:12;;;;;;;23.40;12.32;;;;;;;;;;10525450;28;20034;-80
2023/10/07 17:06:14;;;;;;;24.52;12.75;;;;;;;;;;10525657;28;20059;-81
2023/10/07 17:11:17;;;;;;;21.60;9.73;;;;;;;;;;10527670;28;20050;-88
2023/10/07 17:16:19;;;;;;;28.42;15.38;;;;;;;;;;10534109;28;20020;-80
2023/10/07 17:21:21;;;;;;;18.27;10.48;;;;;;;;;;10534171;28;20028;-80
2023/10/07 17:26:22;;;;;;;18.38;9.50;;;;;;;;;;10532235;28;20047;-81
2023/10/07 17:31:23;;;;;;;19.90;9.57;;;;;;;;;;10533418;28;20408;-81
2023/10/07 17:36:33;;;;;;;21.25;12.25;;;;;;;;;;10533255;28;20036;-81
2023/10/07 17:41:34;;;;;;;17.67;10.07;;;;;;;;;;10532295;28;20032;-81
2023/10/07 17:46:42;;;;;;;16.42;8.80;;;;;;;;;;10532774;28;20035;-80
2023/10/07 17:51:43;;;;;;;16.27;8.73;;;;;;;;;;10532917;28;20533;-81
2023/10/07 17:56:44;;;;;;;15.32;8.80;;;;;;;;;;10532571;28;20123;-81
2023/10/07 18:01:46;;;;;;;17.20;8.40;;;;;;;;;;10532679;28;20054;-81
2023/10/07 18:06:48;;;;;;;11.98;6.32;;;;;;;;;;10531120;28;20585;-85
2023/10/07 18:11:49;;;;;;;12.68;7.30;;;;;;;;;;10531426;28;20035;-80
2023/10/07 18:16:51;;;;;;;10.63;6.28;;;;;;;;;;10530970;28;20063;-83
2023/10/07 18:21:52;;;;;;;12.88;6.38;;;;;;;;;;10530940;28;20028;-80
2023/10/07 18:26:54;;;;;;;11.73;6.03;;;;;;;;;;10529348;28;20044;-81
2023/10/07 18:31:55;;;;;;;10.10;5.32;;;;;;;;;;10531117;28;20032;-80
2023/10/07 18:36:56;;;;;;;9.52;5.38;;;;;;;;;;10530086;28;20028;-83
2023/10/07 18:41:57;;;;;;;10.43;5.10;;;;;;;;;;10529775;28;20450;-80
2023/10/07 18:46:59;;;;;;;9.82;5.57;;;;;;;;;;10522957;28;20047;-81
2023/10/07 18:52:01;;;;;;;8.57;5.28;;;;;;;;;;10530007;28;20031;-80
2023/10/07 18:57:02;;;;;;;11.23;4.88;;;;;;;;;;10530418;28;20068;-81
2023/10/07 19:02:04;;;;;;;11.25;4.75;;;;;;;;;;10529019;28;20512;-81
2023/10/07 19:07:05;;;;;;;8.55;4.68;;;;;;;;;;10529795;28;20038;-82
2023/10/07 19:12:07;;;;;;;12.05;7.25;;;;;;;;;;10530516;28;20428;-86
2023/10/07 19:17:08;;;;;;;15.13;6.57;;;;;;;;;;10515400;28;20043;-80
2023/10/07 19:22:09;;;;;;;13.90;5.82;;;;;;;;;;10528570;28;20081;-80
2023/10/07 19:27:10;;;;;;;9.65;5.32;;;;;;;;;;10526663;28;20399;-80
2023/10/07 19:32:15;;;;;;;12.57;8.68;;;;;;;;;;10528995;28;20039;-80
2023/10/07 19:37:16;;;;;;;14.25;7.63;;;;;;;;;;10508999;28;20028;-88
2023/10/07 19:42:17;;;;;;;14.60;7.35;;;;;;;;;;10527704;28;20718;-82
2023/10/07 19:47:18;;;;;;;11.85;5.75;;;;;;;;;;10527964;28;20040;-80
2023/10/07 19:52:19;;;;;;;8.77;5.93;;;;;;;;;;10527592;28;20065;-80
2023/10/07 19:57:23;;;;;;;10.15;5.30;;;;;;;;;;10528459;28;20070;-85
2023/10/07 20:02:23;;;;;;;10.23;5.40;;;;;;;;;;10526756;28;20039;-85
2023/10/07 20:07:25;;;;;;;9.30;5.25;;;;;;;;;;10527281;28;20040;-81
2023/10/07 20:12:26;;;;;;;12.68;4.53;;;;;;;;;;10527426;28;20104;-79
2023/10/07 20:17:28;;;;;;;7.53;4.50;;;;;;;;;;10527471;28;20030;-81
2023/10/07 20:22:29;;;;;;;8.25;4.68;;;;;;;;;;10526707;28;20027;-82
2023/10/07 20:27:33;;;;;;;13.68;4.82;;;;;;;;;;10524053;28;20563;-80
2023/10/07 20:32:34;;;;;;;11.70;5.30;;;;;;;;;;10512715;28;20044;-80
2023/10/07 20:37:35;;;;;;;13.82;6.15;;;;;;;;;;10521774;28;20043;-84
2023/10/07 20:42:36;;;;;;;10.18;4.40;;;;;;;;;;10521387;28;20437;-80
2023/10/07 20:47:37;;;;;;;11.00;5.13;;;;;;;;;;10529495;28;20526;-81
2023/10/07 20:52:38;;;;;;;7.45;3.65;;;;;;;;;;10535042;28;20544;-81
2023/10/07 20:57:40;;;;;;;10.90;5.90;;;;;;;;;;10523937;28;20047;-82
2023/10/07 21:02:47;;;;;;;12.32;5.50;;;;;;;;;;10511984;28;20050;-84
2023/10/07 21:07:48;;;;;;;10.02;5.10;;;;;;;;;;10530768;28;20077;-83
2023/10/07 21:12:49;;;;;;;8.90;4.35;;;;;;;;;;10515725;28;20505;-82
2023/10/07 21:17:51;;;;;;;12.80;5.00;;;;;;;;;;10527576;28;20024;-81
2023/10/07 21:22:52;;;;;;;9.40;5.07;;;;;;;;;;10533358;28;20031;-81
2023/10/07 21:28:00;;;;;;;9.50;4.90;;;;;;;;;;10487221;28;20056;-80
2023/10/07 21:33:01;;;;;;;7.30;3.78;;;;;;;;;;10485201;28;20039;-83
2023/10/07 21:38:03;;;;;;;10.98;4.18;;;;;;;;;;10488164;28;20056;-84
2023/10/07 21:43:06;;;;;;;11.05;4.97;;;;;;;;;;10480039;28;20036;-84
2023/10/07 21:48:09;;;;;;;9.68;3.60;;;;;;;;;;10488637;28;20047;-81
2023/10/07 21:53:10;;;;;;;9.90;4.07;;;;;;;;;;10490162;28;20193;-81
2023/10/07 21:58:13;;;;;;;10.18;3.75;;;;;;;;;;10486597;28;20138;-80
2023/10/07 22:03:14;;;;;;;10.40;4.10;;;;;;;;;;10490390;28;20032;-80
2023/10/07 22:08:16;;;;;;;10.95;4.57;;;;;;;;;;10490411;28;20035;-80
2023/10/07 22:13:17;;;;;;;9.50;4.10;;;;;;;;;;10489307;28;20028;-86
2023/10/07 22:18:21;;;;;;;8.73;4.18;;;;;;;;;;10468803;28;20373;-81
2023/10/07 22:23:26;;;;;;;15.70;4.53;;;;;;;;;;10488106;28;20024;-84
2023/10/07 22:28:27;;;;;;;9.80;5.05;;;;;;;;;;10514048;28;20067;-80
2023/10/07 22:33:31;;;;;;;11.93;5.05;;;;;;;;;;10530222;28;20379;-85
2023/10/07 22:38:33;;;;;;;11.68;5.47;;;;;;;;;;10528223;28;20016;-81
2023/10/07 22:43:41;;;;;;;10.95;5.93;;;;;;;;;;10529465;28;20028;-81
2023/10/07 22:48:46;;;;;;;11.05;6.60;;;;;;;;;;10522365;28;20042;-81
2023/10/07 22:53:49;;;;;;;12.60;6.50;;;;;;;;;;10529762;28;20024;-82
2023/10/07 22:58:50;;;;;;;4.55;2.90;;;;;;;;;;10528418;28;20488;-80
2023/10/07 23:03:57;;;;;;;3.47;2.17;;;;;;;;;;10529430;28;20050;-81
2023/10/07 23:14:17;;;;;;;3.00;1.52;;;;;;;;;;10523072;28;20040;-81
2023/10/07 23:19:18;;;;;;;1.95;1.00;;;;;;;;;;10522441;28;20032;-81
2023/10/07 23:29:48;;;;;;;1.35;0.70;;;;;;;;;;10524209;28;20459;-81
2023/10/07 23:35:15;;;;;;;1.45;1.00;;;;;;;;;;10521724;28;20034;-83
2023/10/07 23:40:29;;;;;;;0.95;0.70;;;;;;;;;;10513736;28;20032;-81
2023/10/07 23:45:34;;;;;;;1.13;0.95;;;;;;;;;;10521109;28;20024;-80
2023/10/07 23:50:42;;;;;;;2.37;1.30;;;;;;;;;;10527629;28;20535;-81
2023/10/07 23:55:44;;;;;;;2.65;1.27;;;;;;;;;;10527388;28;20435;-81
